Time;durP1;ratioP1;P1;durP2;ratioP2;P2;SDS_P1;SDS_P2;PMS_P1;PMS_P2;Temp;Humidity;BMP_temperature;BMP_pressure;BME280_temperature;BME280_humidity;BME280_pressure;Samples;Min_cycle;Max_cycle;Signal;HPM_P1;HPM_P2
2022/09/28 00:00:16;;;;;;;;;;;;;;;14.57;77.39;94306.78;5073348;28;1052;-67
2022/09/28 00:02:42;;;;;;;;;;;;;;;14.42;77.78;94309.66;5073365;28;989;-67
2022/09/28 00:05:11;;;;;;;;;;;;;;;14.49;77.49;94309.63;5073221;28;1121;-67
2022/09/28 00:07:37;;;;;;;;;;;;;;;14.45;77.08;94316.47;5055433;28;947;-67
2022/09/28 00:10:03;;;;;;;;;;;;;;;14.39;77.39;94320.78;5055266;28;1028;-66
2022/09/28 00:12:30;;;;;;;;;;;;;;;14.43;78.34;94324.72;5073261;28;1036;-66
2022/09/28 00:14:56;;;;;;;;;;;;;;;14.39;78.74;94312.72;5073072;28;1886;-66
2022/09/28 00:17:22;;;;;;;;;;;;;;;14.29;80.60;94306.13;5058424;28;1210;-66
2022/09/28 00:19:48;;;;;;;;;;;;;;;14.32;80.37;94301.13;5053115;28;999;-66
2022/09/28 00:22:14;;;;;;;;;;;;;;;14.42;81.44;94303.44;5052859;28;1013;-66
2022/09/28 00:24:41;;;;;;;;;;;;;;;14.46;82.46;94307.38;5052947;28;1035;-66
2022/09/28 00:27:08;;;;;;;;;;;;;;;14.57;81.92;94312.19;5053114;28;1034;-66
2022/09/28 00:29:35;;;;;;;;;;;;;;;14.55;80.78;94311.53;5053139;28;960;-66
2022/09/28 00:32:03;;;;;;;;;;;;;;;14.54;80.96;94309.84;5052988;28;1015;-65
2022/09/28 00:34:31;;;;;;;;;;;;;;;14.52;82.00;94297.66;5052929;28;1036;-67
2022/09/28 00:36:58;;;;;;;;;;;;;;;14.66;81.43;94296.63;5052636;28;1906;-67
2022/09/28 00:39:25;;;;;;;;;;;;;;;14.67;81.28;94297.50;5052885;28;906;-67
2022/09/28 00:41:52;;;;;;;;;;;;;;;14.59;81.15;94293.97;5055880;28;1017;-67
2022/09/28 00:44:33;;;;;;;;;;;;;;;14.50;83.12;94288.97;5056595;28;1083;-66
2022/09/28 00:47:11;;;;;;;;;;;;;;;14.54;83.14;94287.50;5056348;28;1079;-67
2022/09/28 00:49:49;;;;;;;;;;;;;;;14.70;82.83;94281.75;5056389;28;1200;-67
2022/09/28 00:52:21;;;;;;;;;;;;;;;14.78;83.21;94284.22;5056508;28;1130;-65
2022/09/28 00:54:47;;;;;;;;;;;;;;;14.71;84.67;94283.41;5056488;28;1063;-67
2022/09/28 00:57:15;;;;;;;;;;;;;;;14.71;84.65;94271.81;5056416;28;1914;-66
2022/09/28 00:59:41;;;;;;;;;;;;;;;14.75;84.36;94279.25;5056389;28;995;-67
2022/09/28 01:02:09;;;;;;;;;;;;;;;14.84;83.84;94271.81;5038522;28;1087;-66
2022/09/28 01:04:36;;;;;;;;;;;;;;;14.90;83.16;94279.03;5056532;28;978;-66
2022/09/28 01:07:02;;;;;;;;;;;;;;;14.82;84.06;94280.09;5056352;28;1011;-66
2022/09/28 01:09:29;;;;;;;;;;;;;;;14.73;83.93;94283.19;5056326;28;1156;-66
2022/09/28 01:11:55;;;;;;;;;;;;;;;14.70;84.50;94286.28;5056127;28;1044;-66
2022/09/28 01:14:24;;;;;;;;;;;;;;;14.64;84.20;94286.09;5056043;28;911;-66
2022/09/28 01:17:03;;;;;;;;;;;;;;;14.60;84.24;94292.91;5055856;28;1910;-66
2022/09/28 01:19:30;;;;;;;;;;;;;;;14.73;82.54;94291.28;5056271;28;1053;-66
2022/09/28 01:22:13;;;;;;;;;;;;;;;14.73;81.54;94291.28;5056019;28;1115;-66
2022/09/28 01:24:39;;;;;;;;;;;;;;;14.63;81.86;94278.25;5056084;28;940;-67
2022/09/28 01:27:26;;;;;;;;;;;;;;;14.57;81.38;94279.91;5055693;28;1036;-66
2022/09/28 01:29:57;;;;;;;;;;;;;;;14.55;81.05;94298.06;5038020;28;1211;-66
2022/09/28 01:32:28;;;;;;;;;;;;;;;14.52;81.05;94294.97;5055961;28;1040;-67
2022/09/28 01:34:57;;;;;;;;;;;;;;;14.40;81.14;94286.69;5055712;28;1119;-66
2022/09/28 01:37:26;;;;;;;;;;;;;;;14.42;81.27;94280.06;5055689;28;1052;-65
2022/09/28 01:39:54;;;;;;;;;;;;;;;14.50;81.34;94287.09;5055565;28;1127;-66
2022/09/28 01:42:26;;;;;;;;;;;;;;;14.49;81.48;94285.44;5038063;28;968;-66
2022/09/28 01:44:55;;;;;;;;;;;;;;;14.45;82.03;94289.56;5055800;28;785;-67
2022/09/28 01:47:22;;;;;;;;;;;;;;;14.50;81.47;94292.47;5055962;28;1009;-67
2022/09/28 01:49:57;;;;;;;;;;;;;;;14.37;80.01;94285.22;5067458;28;1078;-67
2022/09/28 01:52:30;;;;;;;;;;;;;;;14.33;80.24;94291.22;5075162;28;986;-66
2022/09/28 01:55:10;;;;;;;;;;;;;;;14.24;79.99;94288.72;5057885;28;1007;-66
2022/09/28 01:57:39;;;;;;;;;;;;;;;14.33;79.55;94283.16;5075352;28;1029;-66
2022/09/28 02:00:09;;;;;;;;;;;;;;;14.31;80.08;94283.34;5075186;28;1029;-67
2022/09/28 02:02:41;;;;;;;;;;;;;;;14.38;79.76;94291.41;5075307;28;1029;-66
2022/09/28 02:05:12;;;;;;;;;;;;;;;14.31;78.46;94293.28;5075363;28;997;-66
2022/09/28 02:07:47;;;;;;;;;;;;;;;14.26;78.95;94301.97;5057610;28;1040;-66
2022/09/28 02:10:18;;;;;;;;;;;;;;;14.23;79.33;94303.19;5075091;28;1088;-66
2022/09/28 02:12:47;;;;;;;;;;;;;;;14.23;80.50;94313.97;5075029;28;1056;-66
2022/09/28 02:15:18;;;;;;;;;;;;;;;14.15;81.46;94311.47;5074769;28;1906;-66
2022/09/28 02:17:45;;;;;;;;;;;;;;;14.09;79.04;94306.88;5057360;28;1225;-66
2022/09/28 02:20:11;;;;;;;;;;;;;;;14.06;79.96;94310.00;5054983;28;1016;-66
2022/09/28 02:22:41;;;;;;;;;;;;;;;14.10;80.31;94308.56;5037289;28;1042;-66
2022/09/28 02:25:08;;;;;;;;;;;;;;;13.99;80.83;94304.59;5037068;28;935;-66
2022/09/28 02:27:34;;;;;;;;;;;;;;;14.03;81.70;94296.97;5054746;28;1048;-66
2022/09/28 02:30:01;;;;;;;;;;;;;;;14.02;81.13;94298.00;5054557;28;1040;-66
2022/09/28 02:32:28;;;;;;;;;;;;;;;14.03;80.88;94302.31;5054624;28;1249;-66
2022/09/28 02:34:54;;;;;;;;;;;;;;;13.91;81.37;94303.97;5054764;28;994;-67
2022/09/28 02:37:20;;;;;;;;;;;;;;;13.95;81.00;94294.47;5054512;28;1906;-67
2022/09/28 02:39:46;;;;;;;;;;;;;;;13.99;80.66;94306.47;5036986;28;955;-67
2022/09/28 02:42:22;;;;;;;;;;;;;;;13.96;81.23;94304.16;5036706;28;1047;-66
2022/09/28 02:44:56;;;;;;;;;;;;;;;13.95;80.69;94299.84;5054354;28;1028;-66
2022/09/28 02:47:41;;;;;;;;;;;;;;;13.86;80.64;94289.25;5054582;28;1013;-66
2022/09/28 02:50:25;;;;;;;;;;;;;;;13.96;81.39;94285.34;5062688;28;1229;-65
2022/09/28 02:53:01;;;;;;;;;;;;;;;14.07;80.95;94284.75;5074239;28;1099;-66
2022/09/28 02:55:42;;;;;;;;;;;;;;;13.98;81.74;94296.72;5074122;28;1902;-66
2022/09/28 02:58:29;;;;;;;;;;;;;;;13.94;81.63;94293.63;5074250;28;984;-66
2022/09/28 03:01:01;;;;;;;;;;;;;;;13.91;81.26;94303.97;5074178;28;1038;-66
2022/09/28 03:03:40;;;;;;;;;;;;;;;13.91;81.09;94301.28;5073411;28;996;-66
2022/09/28 03:06:14;;;;;;;;;;;;;;;13.97;80.67;94295.09;5074165;28;975;-66
2022/09/28 03:08:46;;;;;;;;;;;;;;;13.98;81.04;94311.00;5073938;28;1123;-66
2022/09/28 03:11:21;;;;;;;;;;;;;;;14.05;80.76;94305.63;5073883;28;1028;-66
2022/09/28 03:13:48;;;;;;;;;;;;;;;13.96;81.03;94322.97;5073823;28;962;-66
2022/09/28 03:16:15;;;;;;;;;;;;;;;13.95;81.22;94321.34;5073784;28;1993;-67
2022/09/28 03:18:42;;;;;;;;;;;;;;;13.91;81.79;94310.16;5073963;28;949;-65
2022/09/28 03:21:09;;;;;;;;;;;;;;;14.04;81.72;94314.75;5073807;28;956;-66
2022/09/28 03:23:35;;;;;;;;;;;;;;;14.11;80.57;94322.81;5055910;28;1040;-66
2022/09/28 03:26:01;;;;;;;;;;;;;;;13.97;80.62;94324.66;5073692;28;1032;-66
2022/09/28 03:28:28;;;;;;;;;;;;;;;13.83;80.72;94327.28;5055843;28;1008;-66
2022/09/28 03:30:54;;;;;;;;;;;;;;;13.86;80.94;94329.56;5073847;28;976;-66
2022/09/28 03:33:21;;;;;;;;;;;;;;;13.90;80.70;94340.72;5073669;28;1048;-66
2022/09/28 03:35:47;;;;;;;;;;;;;;;13.93;80.53;94343.03;5073595;28;1909;-66
2022/09/28 03:38:14;;;;;;;;;;;;;;;13.85;79.22;94327.91;5073601;28;966;-68
2022/09/28 03:40:40;;;;;;;;;;;;;;;13.74;79.65;94335.72;5073530;28;960;-67
2022/09/28 03:43:06;;;;;;;;;;;;;;;13.79;79.30;94327.88;5055623;28;1005;-67
2022/09/28 03:45:32;;;;;;;;;;;;;;;13.75;79.77;94322.06;5055855;28;1045;-67
2022/09/28 03:47:59;;;;;;;;;;;;;;;13.77;79.96;94329.94;5055719;28;990;-67
2022/09/28 03:50:25;;;;;;;;;;;;;;;13.75;79.90;94326.63;5073266;28;1093;-67
2022/09/28 03:52:51;;;;;;;;;;;;;;;13.74;80.99;94322.31;5073420;28;1001;-67
2022/09/28 03:55:17;;;;;;;;;;;;;;;13.70;79.94;94329.06;5073228;28;1909;-67
2022/09/28 03:57:43;;;;;;;;;;;;;;;13.73;79.95;94334.88;5073269;28;973;-67
2022/09/28 04:00:09;;;;;;;;;;;;;;;13.77;80.25;94333.47;5055659;28;988;-67
2022/09/28 04:02:36;;;;;;;;;;;;;;;13.76;81.01;94334.50;5055718;28;1040;-67
2022/09/28 04:05:02;;;;;;;;;;;;;;;13.75;80.96;94332.81;5073344;28;1036;-67
2022/09/28 04:07:28;;;;;;;;;;;;;;;13.79;81.25;94344.84;5073344;28;1064;-65
2022/09/28 04:09:54;;;;;;;;;;;;;;;13.86;80.71;94337.63;5073128;28;1192;-66
2022/09/28 04:12:20;;;;;;;;;;;;;;;13.85;81.09;94330.59;5072981;28;1052;-67
2022/09/28 04:14:46;;;;;;;;;;;;;;;13.84;81.13;94347.75;5056742;28;1342;-66
2022/09/28 04:17:12;;;;;;;;;;;;;;;13.68;83.11;94342.72;5063927;28;1906;-66
2022/09/28 04:19:38;;;;;;;;;;;;;;;13.67;82.82;94343.75;5057090;28;1072;-66
2022/09/28 04:22:04;;;;;;;;;;;;;;;13.54;82.84;94341.00;5057178;28;1012;-66
2022/09/28 04:24:30;;;;;;;;;;;;;;;13.57;83.46;94330.69;5056987;28;1076;-68
2022/09/28 04:29:14;;;;;;;;;;;;;;;13.67;83.66;94323.09;5056984;28;1087;-66
2022/09/28 04:29:42;;;;;;;;;;;;;;;13.61;83.97;94336.50;5056995;28;1032;-65
2022/09/28 04:32:09;;;;;;;;;;;;;;;13.69;83.35;94322.06;5056868;28;1044;-65
2022/09/28 04:34:35;;;;;;;;;;;;;;;13.70;83.05;94327.25;5056933;28;1025;-66
2022/09/28 04:37:01;;;;;;;;;;;;;;;13.68;82.82;94340.03;5056730;28;1910;-67
2022/09/28 04:39:27;;;;;;;;;;;;;;;13.72;81.69;94333.25;5039052;28;1044;-66
2022/09/28 04:41:53;;;;;;;;;;;;;;;13.69;81.72;94339.00;5057031;28;1065;-67
2022/09/28 04:44:19;;;;;;;;;;;;;;;13.67;82.25;94338.38;5056586;28;1071;-67
2022/09/28 04:46:45;;;;;;;;;;;;;;;13.61;82.52;94341.88;5056721;28;1059;-67
2022/09/28 04:49:11;;;;;;;;;;;;;;;13.69;82.38;94349.75;5056236;28;1272;-67
2022/09/28 04:51:37;;;;;;;;;;;;;;;13.70;83.04;94346.03;5056697;28;984;-66
2022/09/28 04:54:03;;;;;;;;;;;;;;;13.67;83.36;94346.44;5038678;28;1059;-67
2022/09/28 04:56:29;;;;;;;;;;;;;;;13.72;83.49;94333.25;5056417;28;1982;-66
2022/09/28 04:58:55;;;;;;;;;;;;;;;13.62;84.01;94344.34;5056388;28;1084;-66
2022/09/28 05:01:23;;;;;;;;;;;;;;;13.66;84.82;94344.78;5056527;28;1053;-67
2022/09/28 05:03:49;;;;;;;;;;;;;;;13.76;84.32;94350.59;5056816;28;1033;-67
2022/09/28 05:06:16;;;;;;;;;;;;;;;13.83;84.84;94351.47;5056233;28;1119;-67
2022/09/28 05:08:42;;;;;;;;;;;;;;;13.85;83.02;94359.34;5056207;28;1040;-69
2022/09/28 05:11:10;;;;;;;;;;;;;;;13.85;83.31;94360.16;5056373;28;950;-66
2022/09/28 05:13:44;;;;;;;;;;;;;;;13.80;82.44;94362.59;5056163;28;1095;-66
2022/09/28 05:16:10;;;;;;;;;;;;;;;13.77;83.08;94373.78;5055868;28;1960;-66
2022/09/28 05:18:37;;;;;;;;;;;;;;;13.83;82.76;94377.53;5056508;28;956;-67
2022/09/28 05:21:07;;;;;;;;;;;;;;;13.80;82.48;94383.28;5056469;28;1037;-64
2022/09/28 05:23:34;;;;;;;;;;;;;;;13.82;83.76;94386.59;5055889;28;1083;-66
2022/09/28 05:26:00;;;;;;;;;;;;;;;13.82;84.30;94382.03;5055293;28;1112;-65
2022/09/28 05:28:27;;;;;;;;;;;;;;;13.89;83.88;94390.16;5056022;28;1056;-64
2022/09/28 05:30:57;;;;;;;;;;;;;;;13.96;83.59;94387.47;5055961;28;1019;-67
2022/09/28 05:33:23;;;;;;;;;;;;;;;13.96;84.00;94380.25;5055787;28;1111;-69
2022/09/28 05:35:49;;;;;;;;;;;;;;;13.97;84.36;94378.41;5037926;28;1906;-68
2022/09/28 05:38:16;;;;;;;;;;;;;;;14.03;84.54;94388.34;5055848;28;988;-68
2022/09/28 05:40:42;;;;;;;;;;;;;;;14.10;83.84;94389.19;5055846;28;966;-68
2022/09/28 05:43:08;;;;;;;;;;;;;;;14.15;84.87;94385.88;5055520;28;1048;-68
2022/09/28 05:45:34;;;;;;;;;;;;;;;14.17;84.70;94387.38;5055547;28;1110;-66
2022/09/28 05:48:00;;;;;;;;;;;;;;;14.28;83.75;94383.25;5055490;28;957;-67
2022/09/28 05:50:26;;;;;;;;;;;;;;;14.36;83.27;94382.22;5072630;28;1105;-67
2022/09/28 05:53:03;;;;;;;;;;;;;;;14.50;83.11;94373.16;5075386;28;1020;-67
2022/09/28 05:55:29;;;;;;;;;;;;;;;14.70;82.27;94369.69;5075497;28;1892;-66
2022/09/28 05:57:59;;;;;;;;;;;;;;;14.81;81.61;94372.59;5075498;28;1029;-67
2022/09/28 06:00:29;;;;;;;;;;;;;;;14.99;81.61;94384.63;5057529;28;1032;-67
2022/09/28 06:02:59;;;;;;;;;;;;;;;15.19;82.30;94387.31;5075588;28;1031;-67
2022/09/28 06:05:26;;;;;;;;;;;;;;;15.30;81.61;94393.94;5075143;28;966;-67
2022/09/28 06:07:54;;;;;;;;;;;;;;;15.25;81.03;94393.72;5057614;28;993;-66
2022/09/28 06:10:20;;;;;;;;;;;;;;;15.31;80.92;94400.97;5074955;28;1045;-67
2022/09/28 06:12:50;;;;;;;;;;;;;;;15.25;79.67;94397.22;5075125;28;969;-65
2022/09/28 06:15:16;;;;;;;;;;;;;;;15.23;80.35;94393.91;5074885;28;1910;-65
2022/09/28 06:17:42;;;;;;;;;;;;;;;15.20;80.45;94392.47;5057396;28;1214;-68
2022/09/28 06:20:09;;;;;;;;;;;;;;;15.45;80.81;94402.63;5055089;28;1036;-66
2022/09/28 06:22:35;;;;;;;;;;;;;;;15.70;80.50;94393.84;5055087;28;1006;-67
2022/09/28 06:25:01;;;;;;;;;;;;;;;15.90;80.98;94396.53;5054932;28;1081;-67
2022/09/28 06:27:27;;;;;;;;;;;;;;;16.13;80.62;94396.03;5054815;28;918;-66
2022/09/28 06:29:53;;;;;;;;;;;;;;;16.17;79.32;94406.16;5054814;28;966;-67
2022/09/28 06:32:19;;;;;;;;;;;;;;;16.10;79.94;94402.66;5054505;28;1250;-67
2022/09/28 06:34:45;;;;;;;;;;;;;;;16.03;80.32;94393.81;5054648;28;1048;-67
2022/09/28 06:37:11;;;;;;;;;;;;;;;15.96;80.42;94398.38;5054312;28;1902;-67
2022/09/28 06:39:37;;;;;;;;;;;;;;;15.92;80.07;94402.53;5054170;28;1068;-67
2022/09/28 06:42:04;;;;;;;;;;;;;;;16.00;78.76;94405.00;5054497;28;966;-67
2022/09/28 06:44:31;;;;;;;;;;;;;;;16.18;78.22;94402.44;5054423;28;1036;-67
2022/09/28 06:46:57;;;;;;;;;;;;;;;16.23;78.37;94392.88;5036645;28;1050;-67
2022/09/28 06:49:26;;;;;;;;;;;;;;;16.16;79.36;94396.44;5030560;28;1126;-66
2022/09/28 06:51:52;;;;;;;;;;;;;;;16.42;78.94;94393.81;5036665;28;1115;-67
2022/09/28 06:54:18;;;;;;;;;;;;;;;16.78;79.47;94391.31;5054360;28;1047;-66
2022/09/28 06:56:44;;;;;;;;;;;;;;;16.95;77.49;94391.63;5054147;28;1906;-67
2022/09/28 06:59:10;;;;;;;;;;;;;;;17.00;77.96;94387.44;5054080;28;1043;-67
2022/09/28 07:01:36;;;;;;;;;;;;;;;17.12;78.14;94396.50;5054044;28;1091;-66
2022/09/28 07:04:02;;;;;;;;;;;;;;;17.15;77.17;94386.09;5053992;28;1044;-66
2022/09/28 07:06:29;;;;;;;;;;;;;;;17.11;76.67;94384.88;5054220;28;1048;-67
2022/09/28 07:08:55;;;;;;;;;;;;;;;17.74;76.75;94383.06;5054179;28;1053;-66
2022/09/28 07:11:25;;;;;;;;;;;;;;;18.23;74.83;94388.53;5036277;28;957;-66
2022/09/28 07:13:51;;;;;;;;;;;;;;;18.12;74.77;94396.38;5053863;28;1100;-67
2022/09/28 07:16:17;;;;;;;;;;;;;;;17.66;74.71;94386.88;5053558;28;1971;-67
2022/09/28 07:18:43;;;;;;;;;;;;;;;17.56;76.92;94390.06;5053837;28;1028;-66
2022/09/28 07:21:09;;;;;;;;;;;;;;;17.92;77.08;94385.78;5053917;28;1048;-67
2022/09/28 07:23:36;;;;;;;;;;;;;;;17.68;76.85;94390.19;5053750;28;1104;-66
2022/09/28 07:26:03;;;;;;;;;;;;;;;17.42;77.75;94393.16;5036098;28;965;-66
2022/09/28 07:28:30;;;;;;;;;;;;;;;17.76;76.71;94394.47;5036075;28;1068;-66
2022/09/28 07:30:56;;;;;;;;;;;;;;;17.81;76.12;94397.31;5053603;28;974;-67
2022/09/28 07:33:25;;;;;;;;;;;;;;;17.70;77.05;94403.44;5035929;28;1045;-67
2022/09/28 07:35:52;;;;;;;;;;;;;;;17.75;76.59;94400.91;5053639;28;1910;-67
2022/09/28 07:38:18;;;;;;;;;;;;;;;18.03;75.33;94392.31;5053567;28;970;-67
2022/09/28 07:43:29;;;;;;;;;;;;;;;17.61;76.23;94404.81;5053449;28;1127;-66
2022/09/28 07:45:55;;;;;;;;;;;;;;;18.25;75.20;94408.06;5053879;28;960;-66
2022/09/28 07:48:22;;;;;;;;;;;;;;;18.86;73.30;94406.28;5035601;28;1100;-66
2022/09/28 07:50:50;;;;;;;;;;;;;;;18.78;72.55;94402.00;5073098;28;1041;-68
2022/09/28 07:53:17;;;;;;;;;;;;;;;19.19;72.52;94408.47;5073269;28;1052;-66
2022/09/28 07:55:43;;;;;;;;;;;;;;;19.32;69.70;94404.72;5073247;28;1898;-67
2022/09/28 07:58:09;;;;;;;;;;;;;;;18.85;72.17;94389.19;5073157;28;970;-67
2022/09/28 08:00:35;;;;;;;;;;;;;;;18.67;72.25;94392.75;5073560;28;991;-68
2022/09/28 08:03:01;;;;;;;;;;;;;;;20.41;67.84;94401.50;5073190;28;1123;-65
2022/09/28 08:05:30;;;;;;;;;;;;;;;23.50;57.50;94404.91;5073229;28;1084;-65
2022/09/28 08:07:57;;;;;;;;;;;;;;;23.90;55.49;94414.56;5073347;28;978;-68
2022/09/28 08:10:24;;;;;;;;;;;;;;;26.57;49.44;94412.34;5073224;28;1044;-67
2022/09/28 08:12:57;;;;;;;;;;;;;;;27.57;46.39;94406.94;5073121;28;1064;-67
2022/09/28 08:15:23;;;;;;;;;;;;;;;27.64;45.20;94410.16;5073326;28;1902;-66
2022/09/28 08:17:49;;;;;;;;;;;;;;;28.76;42.09;94415.72;5069396;28;1209;-67
2022/09/28 08:23:03;;;;;;;;;;;;;;;28.22;43.45;94401.97;5073103;28;969;-67
2022/09/28 08:25:30;;;;;;;;;;;;;;;27.68;44.69;94400.25;5055305;28;1056;-67
2022/09/28 08:27:56;;;;;;;;;;;;;;;26.88;46.88;94391.16;5055542;28;1052;-66
2022/09/28 08:30:22;;;;;;;;;;;;;;;26.65;48.58;94392.63;5073046;28;1036;-70
2022/09/28 08:32:48;;;;;;;;;;;;;;;28.44;44.32;94403.41;5073017;28;1056;-71
2022/09/28 08:35:14;;;;;;;;;;;;;;;30.78;39.14;94410.38;5055156;28;1986;-68
2022/09/28 08:37:41;;;;;;;;;;;;;;;30.61;39.56;94404.66;5055046;28;1468;-66
2022/09/28 08:40:14;;;;;;;;;;;;;;;28.13;43.90;94389.16;5072788;28;1007;-67
2022/09/28 08:42:41;;;;;;;;;;;;;;;26.71;48.31;94392.59;5073154;28;956;-68
2022/09/28 08:45:13;;;;;;;;;;;;;;;26.48;48.46;94381.97;5072949;28;981;-68
2022/09/28 08:50:32;;;;;;;;;;;;;;;33.76;35.20;94419.47;5054693;28;1123;-66
2022/09/28 08:53:02;;;;;;;;;;;;;;;37.50;29.28;94437.56;5052927;28;1132;-68
2022/09/28 08:55:33;;;;;;;;;;;;;;;38.56;27.71;94432.78;5052843;28;1906;-67
2022/09/28 08:58:11;;;;;;;;;;;;;;;37.69;28.02;94435.00;5034989;28;1311;-67
2022/09/28 09:00:39;;;;;;;;;;;;;;;35.56;30.43;94405.66;5052722;28;968;-67
2022/09/28 09:03:09;;;;;;;;;;;;;;;31.69;36.83;94387.44;5055963;28;1028;-68
2022/09/28 09:05:46;;;;;;;;;;;;;;;34.82;32.34;94390.41;5056328;28;1088;-67
2022/09/28 09:08:15;;;;;;;;;;;;;;;36.95;29.79;94409.13;5056387;28;1026;-67
2022/09/28 09:11:00;;;;;;;;;;;;;;;37.25;29.05;94403.34;5056325;28;948;-67
2022/09/28 09:13:26;;;;;;;;;;;;;;;33.53;33.33;94369.69;5056168;28;966;-67
2022/09/28 09:15:53;;;;;;;;;;;;;;;29.36;40.92;94357.44;5056245;28;1997;-66
2022/09/28 09:18:35;;;;;;;;;;;;;;;26.62;46.28;94357.53;5038391;28;899;-67
2022/09/28 09:21:08;;;;;;;;;;;;;;;24.68;51.55;94356.50;5056154;28;1008;-66
2022/09/28 09:23:47;;;;;;;;;;;;;;;23.80;55.54;94350.88;5056141;28;959;-66
2022/09/28 09:26:17;;;;;;;;;;;;;;;23.62;56.83;94341.16;5055889;28;1041;-66
2022/09/28 09:28:43;;;;;;;;;;;;;;;23.27;57.95;94342.53;5055893;28;1033;-66
2022/09/28 09:31:18;;;;;;;;;;;;;;;23.14;58.72;94332.88;5055866;28;986;-66
2022/09/28 09:33:52;;;;;;;;;;;;;;;23.05;58.93;94331.72;5055918;28;1060;-66
2022/09/28 09:36:18;;;;;;;;;;;;;;;23.01;61.04;94339.56;5055554;28;1891;-67
2022/09/28 09:39:03;;;;;;;;;;;;;;;22.92;60.50;94320.13;5055746;28;998;-66
2022/09/28 09:41:32;;;;;;;;;;;;;;;22.94;60.71;94311.72;5055663;28;1036;-66
2022/09/28 09:44:10;;;;;;;;;;;;;;;22.94;61.63;94320.69;5055729;28;1057;-65
2022/09/28 09:46:44;;;;;;;;;;;;;;;23.02;61.21;94313.94;5055587;28;1072;-66
2022/09/28 09:49:19;;;;;;;;;;;;;;;22.95;62.11;94310.59;5055212;28;1310;-67
2022/09/28 09:51:55;;;;;;;;;;;;;;;22.92;61.69;94311.16;5055738;28;988;-68
2022/09/28 09:54:26;;;;;;;;;;;;;;;22.92;62.49;94305.69;5055310;28;1004;-67
2022/09/28 09:56:58;;;;;;;;;;;;;;;22.96;61.38;94321.25;5055423;28;1914;-67
2022/09/28 09:59:33;;;;;;;;;;;;;;;23.02;61.12;94313.94;5055302;28;954;-69
2022/09/28 10:02:12;;;;;;;;;;;;;;;23.03;61.61;94318.38;5055245;28;1099;-64
2022/09/28 10:04:42;;;;;;;;;;;;;;;23.04;61.99;94305.56;5055299;28;1107;-67
2022/09/28 10:07:11;;;;;;;;;;;;;;;22.83;63.19;94305.31;5055244;28;1045;-66
2022/09/28 10:09:40;;;;;;;;;;;;;;;22.67;62.55;94301.66;5055266;28;1019;-71
2022/09/28 10:12:10;;;;;;;;;;;;;;;22.70;63.66;94311.19;5054833;28;1043;-65
2022/09/28 10:14:36;;;;;;;;;;;;;;;22.60;63.76;94295.56;5055075;28;1119;-66
2022/09/28 10:17:03;;;;;;;;;;;;;;;22.58;64.02;94298.53;5037314;28;1914;-66
2022/09/28 10:19:33;;;;;;;;;;;;;;;22.44;63.67;94296.47;5054994;28;1064;-66
2022/09/28 10:22:01;;;;;;;;;;;;;;;22.36;64.26;94287.69;5037265;28;1077;-67
2022/09/28 10:24:35;;;;;;;;;;;;;;;22.23;64.81;94293.50;5054738;28;1076;-68
2022/09/28 10:27:12;;;;;;;;;;;;;;;22.25;65.01;94288.66;5054756;28;1036;-67
2022/09/28 10:29:44;;;;;;;;;;;;;;;22.27;65.09;94283.78;5054832;28;1048;-67
2022/09/28 10:32:18;;;;;;;;;;;;;;;22.17;64.98;94276.28;5054721;28;1032;-67
2022/09/28 10:34:44;;;;;;;;;;;;;;;22.29;65.29;94273.47;5036970;28;1028;-68
2022/09/28 10:37:10;;;;;;;;;;;;;;;22.57;65.43;94277.81;5036681;28;2031;-67
2022/09/28 10:39:44;;;;;;;;;;;;;;;22.73;63.80;94272.53;5054587;28;1103;-67
2022/09/28 10:42:11;;;;;;;;;;;;;;;22.76;63.28;94272.00;5054854;28;1049;-67
2022/09/28 10:44:49;;;;;;;;;;;;;;;22.87;63.96;94260.13;5054442;28;1052;-67
2022/09/28 10:47:18;;;;;;;;;;;;;;;22.93;62.45;94263.72;5036694;28;1048;-67
2022/09/28 10:49:47;;;;;;;;;;;;;;;23.02;59.54;94264.06;5065476;28;1307;-67
2022/09/28 10:52:28;;;;;;;;;;;;;;;23.17;59.61;94256.84;5074407;28;938;-68
2022/09/28 10:54:54;;;;;;;;;;;;;;;23.06;58.40;94255.13;5074416;28;1068;-68
2022/09/28 10:57:26;;;;;;;;;;;;;;;22.91;57.14;94252.25;5074102;28;1985;-66
2022/09/28 10:59:52;;;;;;;;;;;;;;;22.69;59.13;94242.28;5074170;28;1121;-67
2022/09/28 11:02:24;;;;;;;;;;;;;;;22.57;56.21;94245.13;5073987;28;957;-68
2022/09/28 11:04:53;;;;;;;;;;;;;;;22.61;56.68;94246.28;5056595;28;1057;-68
2022/09/28 11:07:22;;;;;;;;;;;;;;;22.61;56.08;94251.72;5074069;28;1027;-68
2022/09/28 11:09:49;;;;;;;;;;;;;;;22.61;59.09;94246.28;5074196;28;999;-68
2022/09/28 11:12:18;;;;;;;;;;;;;;;22.75;61.59;94243.94;5056101;28;957;-68
2022/09/28 11:14:45;;;;;;;;;;;;;;;22.89;61.71;94241.59;5073817;28;1044;-67
2022/09/28 11:17:30;;;;;;;;;;;;;;;22.92;62.06;94237.56;5060812;28;1989;-67
2022/09/28 11:19:57;;;;;;;;;;;;;;;22.83;58.33;94237.19;5054001;28;970;-68
2022/09/28 11:22:25;;;;;;;;;;;;;;;22.84;59.23;94236.13;5053949;28;1038;-67
2022/09/28 11:24:52;;;;;;;;;;;;;;;22.94;58.49;94232.66;5053165;28;1042;-68
2022/09/28 11:27:22;;;;;;;;;;;;;;;23.10;56.97;94231.72;5053628;28;1039;-67
2022/09/28 11:29:56;;;;;;;;;;;;;;;23.27;56.19;94233.47;5053648;28;1104;-68
2022/09/28 11:32:29;;;;;;;;;;;;;;;23.34;57.83;94226.69;5053578;28;1059;-67
2022/09/28 11:34:57;;;;;;;;;;;;;;;23.37;56.59;94228.06;5053772;28;1021;-68
2022/09/28 11:37:36;;;;;;;;;;;;;;;23.47;55.31;94214.50;5053503;28;1983;-68
2022/09/28 11:40:10;;;;;;;;;;;;;;;23.51;55.88;94212.88;5035732;28;1017;-68
2022/09/28 11:42:36;;;;;;;;;;;;;;;23.43;52.39;94227.03;5053751;28;1014;-68
2022/09/28 11:45:08;;;;;;;;;;;;;;;23.34;53.81;94213.06;5053527;28;1042;-68
2022/09/28 11:47:34;;;;;;;;;;;;;;;23.36;53.87;94231.91;5053484;28;955;-68
2022/09/28 11:50:00;;;;;;;;;;;;;;;23.38;57.40;94229.72;5060726;28;1110;-67
2022/09/28 11:52:42;;;;;;;;;;;;;;;23.33;53.81;94232.41;5073399;28;1036;-68
2022/09/28 11:55:13;;;;;;;;;;;;;;;23.23;56.47;94224.19;5073653;28;950;-68
2022/09/28 11:57:41;;;;;;;;;;;;;;;23.08;58.19;94228.44;5073455;28;1999;-69
2022/09/28 12:00:10;;;;;;;;;;;;;;;22.97;55.25;94232.97;5073277;28;962;-68
2022/09/28 12:02:41;;;;;;;;;;;;;;;22.87;54.85;94221.16;5073343;28;1007;-68
2022/09/28 12:05:14;;;;;;;;;;;;;;;22.89;57.91;94230.72;5073254;28;1008;-68
2022/09/28 12:07:46;;;;;;;;;;;;;;;22.85;62.59;94226.88;5073516;28;1028;-68
2022/09/28 12:10:18;;;;;;;;;;;;;;;22.79;58.79;94230.63;5073289;28;1118;-67
2022/09/28 12:12:59;;;;;;;;;;;;;;;22.77;55.75;94235.53;5073276;28;1065;-68
2022/09/28 12:15:29;;;;;;;;;;;;;;;22.87;57.60;94235.59;5073160;28;1902;-67
2022/09/28 12:17:59;;;;;;;;;;;;;;;23.00;60.77;94232.44;5073296;28;1214;-67
2022/09/28 12:20:28;;;;;;;;;;;;;;;23.12;54.71;94215.91;5073157;28;1235;-68
2022/09/28 12:22:54;;;;;;;;;;;;;;;23.27;54.80;94211.66;5073275;28;1029;-67
2022/09/28 12:25:21;;;;;;;;;;;;;;;23.45;51.62;94219.41;5072961;28;1084;-67
2022/09/28 12:27:54;;;;;;;;;;;;;;;23.54;49.85;94223.28;5072945;28;1048;-67
2022/09/28 12:30:21;;;;;;;;;;;;;;;23.54;51.94;94216.97;5055473;28;971;-67
2022/09/28 12:32:54;;;;;;;;;;;;;;;23.52;49.54;94210.97;5073195;28;994;-68
2022/09/28 12:35:30;;;;;;;;;;;;;;;23.61;51.70;94214.84;5055159;28;1070;-68
2022/09/28 12:37:57;;;;;;;;;;;;;;;23.61;48.93;94206.66;5076009;28;1021;-67
2022/09/28 12:40:34;;;;;;;;;;;;;;;23.65;48.30;94212.41;5076836;28;1041;-66
2022/09/28 12:43:09;;;;;;;;;;;;;;;23.54;49.52;94212.38;5059025;28;1035;-67
2022/09/28 12:45:41;;;;;;;;;;;;;;;23.44;52.03;94214.22;5076861;28;938;-67
2022/09/28 12:48:07;;;;;;;;;;;;;;;23.44;50.54;94206.84;5076605;28;1103;-66
2022/09/28 12:50:59;;;;;;;;;;;;;;;23.50;49.73;94213.16;5058703;28;1537;-68
2022/09/28 12:53:44;;;;;;;;;;;;;;;23.56;51.74;94203.88;5076873;28;1104;-67
2022/09/28 12:56:14;;;;;;;;;;;;;;;23.57;50.11;94208.28;5058640;28;1991;-67
2022/09/28 12:58:58;;;;;;;;;;;;;;;23.55;48.49;94205.00;5076622;28;1061;-68
2022/09/28 13:01:38;;;;;;;;;;;;;;;23.50;49.75;94216.69;5076469;28;985;-67
2022/09/28 13:04:16;;;;;;;;;;;;;;;23.48;51.13;94216.13;5076341;28;1032;-67
2022/09/28 13:06:54;;;;;;;;;;;;;;;23.54;48.74;94219.72;5058596;28;1313;-68
2022/09/28 13:09:22;;;;;;;;;;;;;;;23.56;48.27;94217.53;5076316;28;1016;-68
2022/09/28 13:12:07;;;;;;;;;;;;;;;23.58;48.26;94224.38;5076195;28;1163;-68
2022/09/28 13:14:53;;;;;;;;;;;;;;;23.65;48.75;94212.41;5076441;28;1064;-67
2022/09/28 13:17:34;;;;;;;;;;;;;;;23.73;48.68;94211.88;5072162;28;1910;-67
2022/09/28 13:19:59;;;;;;;;;;;;;;;23.73;45.88;94210.00;5076030;28;1036;-67